TFM - Tactical Decision Aid
ID: Runway Winds: CIG/VIS Threshold:

KCYS - Cheyenne Rgnl, WY, US

Updated at: 1411 UTC 27 Nov 2021
Latest TAF at: 1140 UTC 27 Nov 2021

TAF Board

Time1353Z 27/15Z 27/16Z 27/17Z 27/18Z 27/19Z 27/20Z 27/21Z 27/22Z 27/23Z 28/00Z 28/01Z 28/02Z 28/03Z>>
Type OBS PRVL PRVL PRVL PRVL PRVL PRVL PRVL PRVL PRVL PRVL PRVL PRVL PRVL
VIS 10 >6 >6 >6 >6 >6 >6 >6 >6 >6 >6 >6 >6 >6
CIG -- -- -- -- -- -- -- 250 250 250 250 250 -- --
Cover CLR SCT SCT SCT SCT SCT SCT BKN BKN BKN BKN BKN SCT SCT
FltCat VFR VFR VFR VFR VFR VFR VFR VFR VFR VFR VFR VFR VFR VFR
WX -- -- -- -- -- -- -- -- -- -- -- -- -- --
WDir 270 340 340 340 340 340 340 340 340 340 340 340 250 250
WSpd 9 12 12 12 12 12 12 10 10 10 10 10 7 7
WGst -- 18 18 18 18 18 18 -- -- -- -- -- -- --
WSHgt -- -- -- -- -- -- -- -- -- -- -- -- -- --
WSDir -- -- -- -- -- -- -- -- -- -- -- -- -- --
WSSpd -- -- -- -- -- -- -- -- -- -- -- -- -- --

TDA Impact Legend

  None Marginal Slight Moderate High
Visibility (sm) >5 3≤X≤5 2≤X<3 0.5≤X<2 <0.5
Ceiling (100 ft) >30 10≤X≤30 6≤X<10 2≤X<6 <2
Wind Speed (kt) <15 15≤X<25 25≤X<30 ≥30
Wind Gust (kt) <15 15≤X<25 25≤X<35 ≥35
Weather No Wx Reported VCTS -TS,-FZRA TS,FZRA +TS,+FZRA
TAF
KCYS 271140Z 2712/2812 31011KT P6SM SKC
  FM271500 34012G18KT P6SM SCT250
  FM272100 34010KT P6SM BKN250
  FM280200 25007KT P6SM SCT250


METAR
KCYS 271353Z 27009KT 10SM CLR 00/M12 A3019 RMK AO2 SLP204 T00001122
KCYS 271253Z 32004KT 10SM CLR 01/M13 A3018 RMK AO2 SLP197 T00111128
KCYS 271153Z AUTO 31008KT 10SM CLR 03/M13 A3016 RMK AO2 SLP181 T00331128 10083 20033 53017
KCYS 271053Z AUTO 02009KT 10SM CLR 05/M12 A3013 RMK AO2 SLP165 T00501122

Radar Display
Forecast Discussion